Time;durP1;ratioP1;P1;durP2;ratioP2;P2;SDS_P1;SDS_P2;PMS_P1;PMS_P2;Temp;Humidity;BMP_temperature;BMP_pressure;BME280_temperature;BME280_humidity;BME280_pressure;Samples;Min_cycle;Max_cycle;Signal;HPM_P1;HPM_P2
2021/06/17 00:01:25;;;;;;;4.55;0.70;;;;;;;15.99;56.61;100511.03;4914348;29;20091;-40
2021/06/17 00:03:53;;;;;;;2.10;0.80;;;;;;;15.94;56.90;100509.38;4915601;29;20082;-39
2021/06/17 00:06:20;;;;;;;1.92;0.70;;;;;;;15.92;56.76;100522.09;4914428;29;20068;-38
2021/06/17 00:08:47;;;;;;;4.07;1.48;;;;;;;15.95;56.60;100526.94;4914701;29;20037;-38
2021/06/17 00:11:14;;;;;;;2.22;0.90;;;;;;;15.89;56.66;100525.66;4897676;29;20107;-39
2021/06/17 00:13:41;;;;;;;5.55;0.90;;;;;;;15.84;56.71;100524.03;4914857;29;20127;-39
2021/06/17 00:16:09;;;;;;;4.63;0.70;;;;;;;15.90;56.56;100518.91;4915032;29;20052;-41
2021/06/17 00:18:36;;;;;;;1.40;0.57;;;;;;;15.88;56.75;100530.47;4914726;29;20072;-40
2021/06/17 00:21:04;;;;;;;1.17;0.65;;;;;;;15.88;56.69;100527.69;4909274;29;20581;-40
2021/06/17 00:23:32;;;;;;;3.08;1.20;;;;;;;15.83;56.92;100519.66;4913824;29;20076;-39
2021/06/17 00:25:59;;;;;;;4.03;0.73;;;;;;;15.81;57.02;100527.59;4889892;29;20056;-40
2021/06/17 00:28:26;;;;;;;3.47;0.60;;;;;;;15.76;57.22;100533.53;4916250;29;20040;-44
2021/06/17 00:30:53;;;;;;;3.42;0.95;;;;;;;15.77;57.19;100529.56;4927140;29;20131;-39
2021/06/17 00:33:20;;;;;;;5.43;0.57;;;;;;;15.77;57.18;100530.38;4922066;29;20080;-39
2021/06/17 00:35:47;;;;;;;2.58;0.52;;;;;;;15.63;57.42;100527.44;4918511;29;20375;-39
2021/06/17 00:38:15;;;;;;;5.03;0.80;;;;;;;15.57;57.66;100530.97;4918599;29;20044;-40
2021/06/17 00:40:43;;;;;;;3.72;1.40;;;;;;;15.51;57.77;100524.97;4917748;29;20514;-39
2021/06/17 00:43:10;;;;;;;2.08;0.82;;;;;;;15.40;58.01;100539.94;4918574;29;20044;-39
2021/06/17 00:45:43;;;;;;;2.58;0.80;;;;;;;15.33;58.32;100534.31;4917700;29;20048;-44
2021/06/17 00:48:11;;;;;;;4.25;1.17;;;;;;;15.30;58.51;100533.06;4910219;29;20561;-39
2021/06/17 00:50:42;;;;;;;4.15;0.93;;;;;;;15.23;58.74;100527.41;4917591;29;20466;-39
2021/06/17 00:53:14;;;;;;;1.73;0.50;;;;;;;15.16;59.00;100525.34;4917784;29;20107;-39
2021/06/17 00:55:43;;;;;;;1.85;0.80;;;;;;;15.11;59.19;100528.47;4916961;29;20045;-40
2021/06/17 00:58:11;;;;;;;3.13;0.65;;;;;;;15.09;59.28;100528.03;4917665;29;20040;-39
2021/06/17 01:00:38;;;;;;;4.75;0.60;;;;;;;15.07;59.42;100526.81;4918115;29;20082;-40
2021/06/17 01:03:05;;;;;;;2.28;0.57;;;;;;;15.07;59.55;100527.63;4916823;29;20123;-40
2021/06/17 01:05:32;;;;;;;1.58;0.50;;;;;;;15.02;59.85;100532.72;4917923;29;20139;-40
2021/06/17 01:08:02;;;;;;;6.13;0.98;;;;;;;14.98;59.92;100527.13;4917601;29;20383;-40
2021/06/17 01:10:40;;;;;;;2.85;1.30;;;;;;;14.92;59.95;100528.66;4917989;29;20052;-40
2021/06/17 01:13:18;;;;;;;7.78;1.48;;;;;;;14.86;60.22;100523.78;4917730;29;20501;-40
2021/06/17 01:16:10;;;;;;;4.53;1.40;;;;;;;14.81;60.61;100524.91;4917373;29;20051;-40
2021/06/17 01:18:42;;;;;;;4.35;1.13;;;;;;;14.88;60.08;100524.22;4900366;29;20044;-40
2021/06/17 01:21:19;;;;;;;7.15;1.65;;;;;;;14.84;60.13;100529.75;4900382;29;20079;-40
2021/06/17 01:24:00;;;;;;;4.82;0.80;;;;;;;14.85;60.53;100527.75;4916837;29;20068;-40
2021/06/17 01:26:49;;;;;;;4.93;1.20;;;;;;;14.80;60.58;100531.66;4911236;29;20687;-40
2021/06/17 01:29:23;;;;;;;7.10;0.88;;;;;;;14.82;60.21;100525.72;4918602;29;20111;-40
2021/06/17 01:31:51;;;;;;;1.55;0.85;;;;;;;14.80;60.33;100523.31;4920047;29;20434;-40
2021/06/17 01:34:21;;;;;;;3.47;1.38;;;;;;;14.79;60.33;100527.28;4924403;29;20558;-40
2021/06/17 01:36:57;;;;;;;3.78;0.70;;;;;;;14.74;60.88;100518.47;4923700;29;20075;-41
2021/06/17 01:39:26;;;;;;;8.65;1.80;;;;;;;14.76;60.68;100522.47;4916385;29;20075;-40
2021/06/17 01:41:53;;;;;;;4.28;1.02;;;;;;;14.80;60.37;100517.72;4916649;29;20136;-40
2021/06/17 01:44:22;;;;;;;2.17;1.13;;;;;;;14.79;60.36;100521.72;4924409;29;20090;-40
2021/06/17 01:46:51;;;;;;;4.38;1.20;;;;;;;14.76;60.49;100519.69;4922112;29;20048;-40
2021/06/17 01:49:20;;;;;;;3.03;1.10;;;;;;;14.70;60.81;100523.97;4916110;29;20459;-40
2021/06/17 01:51:48;;;;;;;2.42;0.80;;;;;;;14.59;60.99;100534.16;4914461;29;20845;-40
2021/06/17 01:54:24;;;;;;;3.00;1.10;;;;;;;14.49;61.04;100529.25;4923588;29;20044;-40
2021/06/17 01:56:53;;;;;;;4.80;1.00;;;;;;;14.46;61.42;100535.56;4917412;29;20052;-40
2021/06/17 01:59:22;;;;;;;5.60;1.10;;;;;;;14.49;61.29;100529.25;4916999;29;20461;-39
2021/06/17 02:01:57;;;;;;;4.35;1.13;;;;;;;14.44;61.61;100529.59;4893233;29;20048;-41
2021/06/17 02:04:29;;;;;;;3.85;2.05;;;;;;;14.38;61.94;100519.94;4899988;29;20132;-40
2021/06/17 02:06:58;;;;;;;6.72;1.10;;;;;;;14.37;61.57;100523.91;4899585;29;20119;-40
2021/06/17 02:09:26;;;;;;;9.23;1.23;;;;;;;14.31;61.99;100517.03;4912766;29;20048;-41
2021/06/17 02:11:53;;;;;;;4.22;1.00;;;;;;;14.26;61.93;100514.56;4918787;29;20048;-40
2021/06/17 02:14:25;;;;;;;3.35;1.08;;;;;;;14.23;62.19;100520.88;4920636;29;20158;-40
2021/06/17 02:16:53;;;;;;;2.28;0.90;;;;;;;14.24;61.89;100525.28;4903182;29;20126;-40
2021/06/17 02:19:23;;;;;;;4.53;1.20;;;;;;;14.20;62.27;100524.41;4913447;29;20056;-40
2021/06/17 02:21:53;;;;;;;7.40;1.23;;;;;;;14.22;62.18;100527.63;4921601;29;20372;-40
2021/06/17 02:24:22;;;;;;;5.25;1.45;;;;;;;14.26;61.97;100525.72;4919613;29;20072;-40
2021/06/17 02:26:52;;;;;;;5.43;0.80;;;;;;;14.24;61.90;100523.31;4914187;29;20096;-40
2021/06/17 02:29:22;;;;;;;5.18;0.90;;;;;;;14.15;62.14;100519.16;4917332;29;20562;-40
2021/06/17 02:31:51;;;;;;;3.92;1.10;;;;;;;14.05;62.38;100534.53;4927681;29;20111;-39
2021/06/17 02:34:19;;;;;;;9.48;1.15;;;;;;;13.92;62.64;100527.56;4916739;29;20486;-40
2021/06/17 02:36:47;;;;;;;3.15;1.42;;;;;;;13.84;63.02;100531.41;4921842;29;20095;-40
2021/06/17 02:39:19;;;;;;;4.75;1.08;;;;;;;13.79;63.30;100532.50;4917824;29;20090;-40
2021/06/17 02:41:51;;;;;;;5.63;1.10;;;;;;;13.76;63.34;100532.47;4923594;29;20082;-47
2021/06/17 02:44:21;;;;;;;3.50;1.08;;;;;;;13.77;63.09;100529.31;4905298;29;20060;-40
2021/06/17 02:46:48;;;;;;;4.13;1.05;;;;;;;13.79;63.25;100528.94;4925448;29;20035;-40
2021/06/17 02:49:15;;;;;;;8.63;1.60;;;;;;;13.76;63.39;100527.72;4915952;29;20044;-40
2021/06/17 02:51:42;;;;;;;6.75;1.83;;;;;;;13.67;63.36;100521.59;4916954;29;20083;-40
2021/06/17 02:54:09;;;;;;;3.67;1.02;;;;;;;13.54;63.99;100527.69;4917032;29;20132;-40
2021/06/17 02:56:58;;;;;;;2.92;1.00;;;;;;;13.49;64.21;100523.25;4916051;29;20075;-40
2021/06/17 02:59:43;;;;;;;8.23;1.10;;;;;;;13.52;64.14;100528.09;4910326;29;20407;-40
2021/06/17 03:02:20;;;;;;;3.97;1.40;;;;;;;13.50;64.37;100518.50;4921873;29;20496;-39
2021/06/17 03:04:59;;;;;;;4.97;1.13;;;;;;;13.47;64.15;100522.84;4916244;29;20119;-40
2021/06/17 03:07:31;;;;;;;7.07;1.48;;;;;;;13.47;64.15;100522.03;4915916;29;20524;-40
2021/06/17 03:10:00;;;;;;;;;;;;;;;13.44;65.00;100526.34;4904793;29;20119;-40
2021/06/17 03:12:28;;;;;;;5.38;1.10;;;;;;;13.39;63.95;100533.03;4898767;29;20063;-40
2021/06/17 03:14:58;;;;;;;7.80;1.92;;;;;;;13.34;64.38;100524.97;4897516;29;20071;-40
2021/06/17 03:17:27;;;;;;;3.92;1.30;;;;;;;13.36;64.26;100527.38;4907939;29;20091;-40
2021/06/17 03:19:56;;;;;;;5.25;1.00;;;;;;;13.33;64.58;100534.50;4916007;29;20055;-40
2021/06/17 03:22:25;;;;;;;4.35;1.00;;;;;;;13.26;64.90;100526.00;4913279;29;20442;-41
2021/06/17 03:24:57;;;;;;;8.68;1.75;;;;;;;13.24;64.93;100533.09;4914985;29;20107;-40
2021/06/17 03:27:25;;;;;;;4.15;1.88;;;;;;;13.26;64.79;100539.13;4914983;29;20478;-40
2021/06/17 03:29:52;;;;;;;3.22;1.08;;;;;;;13.25;64.65;100537.50;4915958;29;20869;-40
2021/06/17 03:32:26;;;;;;;5.83;1.67;;;;;;;13.22;64.94;100544.59;4914837;29;20048;-40
2021/06/17 03:34:54;;;;;;;6.80;1.13;;;;;;;13.23;64.97;100550.97;4917710;29;20040;-40
2021/06/17 03:37:24;;;;;;;5.15;1.48;;;;;;;13.18;65.21;100548.50;4918567;29;20040;-39
2021/06/17 03:39:54;;;;;;;5.72;1.10;;;;;;;13.07;65.57;100542.72;4915127;29;20036;-41
2021/06/17 03:42:23;;;;;;;13.63;3.13;;;;;;;13.11;65.38;100542.78;4926096;29;20054;-39
2021/06/17 03:44:51;;;;;;;5.25;1.08;;;;;;;13.07;65.80;100553.03;4915253;29;20084;-39
2021/06/17 03:47:22;;;;;;;5.32;1.33;;;;;;;13.04;65.97;100556.50;4915468;29;20398;-40
2021/06/17 03:49:52;;;;;;;7.32;0.98;;;;;;;13.08;65.67;100541.53;4916852;29;20052;-40
2021/06/17 03:52:20;;;;;;;4.07;0.88;;;;;;;13.13;65.58;100546.78;4923272;29;20118;-39
2021/06/17 03:54:48;;;;;;;11.55;1.30;;;;;;;13.11;65.67;100551.13;4888901;29;20040;-40
2021/06/17 03:57:20;;;;;;;7.88;1.42;;;;;;;13.10;65.73;100557.84;4922262;29;20051;-40
2021/06/17 03:59:49;;;;;;;8.43;2.78;;;;;;;13.14;65.59;100565.09;4915488;29;20076;-40
2021/06/17 04:02:16;;;;;;;5.85;1.40;;;;;;;13.15;65.67;100565.91;4914770;29;20083;-40
2021/06/17 04:04:45;;;;;;;4.80;1.23;;;;;;;13.11;65.83;100573.34;4918875;29;20044;-40
2021/06/17 04:07:21;;;;;;;7.10;1.48;;;;;;;13.02;66.04;100572.75;4918037;29;20422;-41
2021/06/17 04:09:51;;;;;;;6.43;1.52;;;;;;;12.96;66.24;100569.44;4919686;29;20132;-41
2021/06/17 04:12:24;;;;;;;16.85;2.90;;;;;;;12.94;66.43;100582.09;4927971;29;20446;-40
2021/06/17 04:14:55;;;;;;;7.03;2.15;;;;;;;12.99;66.20;100584.59;4919701;29;20076;-40
2021/06/17 04:17:26;;;;;;;4.60;1.48;;;;;;;13.01;66.06;100598.91;4918297;29;20087;-40
2021/06/17 04:19:55;;;;;;;6.47;1.85;;;;;;;13.07;65.93;100592.75;4920273;29;20056;-40
2021/06/17 04:22:23;;;;;;;4.25;1.15;;;;;;;13.00;66.04;100589.00;4904837;29;20056;-40
2021/06/17 04:24:54;;;;;;;6.78;1.40;;;;;;;12.94;66.36;100587.66;4916372;29;20040;-40
2021/06/17 04:27:22;;;;;;;4.45;1.20;;;;;;;12.85;66.71;100596.19;4929587;29;20313;-40
2021/06/17 04:29:53;;;;;;;6.75;1.50;;;;;;;12.78;66.73;100591.31;4916229;29;20032;-40
2021/06/17 04:32:21;;;;;;;3.85;0.98;;;;;;;12.75;66.99;100586.47;4918186;29;20434;-40
2021/06/17 04:34:50;;;;;;;7.75;1.58;;;;;;;12.85;66.86;100598.97;4922765;29;20439;-40
2021/06/17 04:37:22;;;;;;;8.98;2.35;;;;;;;12.81;66.97;100606.44;4917970;29;20057;-40
2021/06/17 04:39:50;;;;;;;7.88;1.80;;;;;;;12.77;66.97;100609.13;4918385;29;20103;-40
2021/06/17 04:42:18;;;;;;;6.20;1.10;;;;;;;12.75;67.16;100605.94;4918706;29;20059;-40
2021/06/17 04:44:46;;;;;;;4.55;1.20;;;;;;;12.75;67.25;100619.81;4918778;29;20104;-40
2021/06/17 04:47:15;;;;;;;5.15;1.10;;;;;;;12.88;66.89;100611.34;4917800;29;20046;-40
2021/06/17 04:49:43;;;;;;;4.68;1.88;;;;;;;12.94;66.59;100626.56;4917481;29;20410;-39
2021/06/17 04:52:28;;;;;;;10.95;3.63;;;;;;;12.96;66.79;100618.66;4917847;29;20086;-40
2021/06/17 04:54:56;;;;;;;14.80;1.90;;;;;;;12.90;66.79;100625.66;4911034;29;20056;-40
2021/06/17 04:57:23;;;;;;;6.68;1.80;;;;;;;12.87;66.95;100623.66;4917792;29;20135;-40
2021/06/17 04:59:50;;;;;;;6.30;1.13;;;;;;;12.93;66.75;100636.06;4911828;29;20131;-40
2021/06/17 05:02:17;;;;;;;9.50;2.33;;;;;;;12.86;66.83;100641.47;4918026;29;20083;-39
2021/06/17 05:04:44;;;;;;;3.65;1.75;;;;;;;12.83;66.99;100648.56;4906042;29;20100;-40
2021/06/17 05:07:24;;;;;;;7.15;2.15;;;;;;;12.77;67.27;100644.44;4905808;29;20040;-40
2021/06/17 05:12:36;;;;;;;9.05;1.80;;;;;;;12.79;67.50;100658.78;4922442;29;20078;-40
2021/06/17 05:15:05;;;;;;;5.85;1.65;;;;;;;12.80;67.54;100660.38;4915150;29;20063;-40
2021/06/17 05:17:32;;;;;;;5.22;1.42;;;;;;;12.72;67.56;100664.97;4916533;29;20121;-39
2021/06/17 05:19:59;;;;;;;10.18;1.77;;;;;;;12.79;67.59;100658.78;4916581;29;20131;-39
2021/06/17 05:22:26;;;;;;;11.32;1.58;;;;;;;12.86;67.44;100674.81;4916601;29;20126;-40
2021/06/17 05:24:53;;;;;;;4.75;1.60;;;;;;;12.81;67.73;100673.13;4916856;29;20064;-40
2021/06/17 05:27:20;;;;;;;5.65;1.20;;;;;;;12.76;67.57;100674.19;4917374;29;20052;-40
2021/06/17 05:29:47;;;;;;;7.18;1.30;;;;;;;12.80;67.83;100677.06;4912131;29;20047;-41
2021/06/17 05:32:15;;;;;;;4.85;1.30;;;;;;;12.93;67.45;100680.53;4898187;29;20104;-39
2021/06/17 05:34:42;;;;;;;5.97;1.60;;;;;;;12.94;67.47;100682.94;4923070;29;20107;-43
2021/06/17 05:37:09;;;;;;;7.43;1.15;;;;;;;12.96;67.57;100682.56;4908480;29;20064;-40
2021/06/17 05:39:36;;;;;;;5.10;1.27;;;;;;;13.01;67.58;100687.84;4900912;29;20126;-40
2021/06/17 05:42:04;;;;;;;11.88;2.22;;;;;;;13.04;67.59;100689.91;4917274;29;20092;-39
2021/06/17 05:44:30;;;;;;;8.82;1.90;;;;;;;13.04;67.56;100695.47;4916650;29;20044;-40
2021/06/17 05:46:58;;;;;;;5.90;1.27;;;;;;;13.11;67.39;100687.31;4915456;29;20103;-40
2021/06/17 05:49:25;;;;;;;6.28;1.55;;;;;;;13.13;67.35;100685.00;4918435;29;20090;-39
2021/06/17 05:51:52;;;;;;;8.07;1.77;;;;;;;13.20;67.29;100699.84;4921085;29;20056;-40
2021/06/17 05:54:19;;;;;;;6.97;1.25;;;;;;;13.16;67.37;100692.56;4916907;29;20055;-40
2021/06/17 05:56:47;;;;;;;6.13;1.80;;;;;;;13.19;67.39;100700.19;4909511;29;20040;-39
2021/06/17 05:59:17;;;;;;;6.38;1.10;;;;;;;13.17;67.51;100696.97;4916836;29;20064;-40
2021/06/17 06:01:44;;;;;;;3.53;1.02;;;;;;;13.12;67.64;100700.03;4927346;29;20136;-40
2021/06/17 06:04:11;;;;;;;6.93;1.13;;;;;;;13.05;68.08;100691.53;4927072;29;20138;-40
2021/06/17 06:06:38;;;;;;;9.85;2.22;;;;;;;13.06;67.98;100696.72;4913266;29;20075;-40
2021/06/17 06:09:04;;;;;;;11.35;2.72;;;;;;;13.14;67.75;100684.63;4918193;29;20127;-40
2021/06/17 06:11:31;;;;;;;7.18;2.13;;;;;;;13.08;67.85;100682.50;4917719;29;20079;-41
2021/06/17 06:13:58;;;;;;;3.45;1.30;;;;;;;12.99;68.11;100687.41;4915698;29;20052;-40
2021/06/17 06:16:25;;;;;;;6.30;1.23;;;;;;;13.05;68.09;100694.31;4917957;29;20033;-40
2021/06/17 06:18:52;;;;;;;4.28;0.95;;;;;;;13.11;68.06;100684.53;4920225;29;20060;-40
2021/06/17 06:21:19;;;;;;;6.28;1.10;;;;;;;13.23;68.07;100681.63;4914240;29;20402;-40
2021/06/17 06:23:46;;;;;;;7.45;1.80;;;;;;;13.25;67.89;100682.88;4916033;29;20100;-40
2021/06/17 06:26:13;;;;;;;5.05;1.70;;;;;;;13.35;67.81;100681.47;4915671;29;20092;-40
2021/06/17 06:28:40;;;;;;;10.25;1.50;;;;;;;13.39;67.71;100677.63;4918210;29;20172;-40
2021/06/17 06:31:07;;;;;;;6.50;1.45;;;;;;;13.42;67.65;100684.44;4916261;29;20058;-40
2021/06/17 06:33:34;;;;;;;5.75;1.02;;;;;;;13.38;67.71;100691.88;4923990;29;20040;-40
2021/06/17 06:36:01;;;;;;;7.15;1.48;;;;;;;13.34;68.11;100696.56;4926123;29;20052;-40
2021/06/17 06:38:28;;;;;;;7.47;1.73;;;;;;;13.30;68.35;100684.56;4916633;29;20044;-40
2021/06/17 06:40:55;;;;;;;12.35;1.55;;;;;;;13.39;68.17;100687.94;4916026;29;20091;-40
2021/06/17 06:43:22;;;;;;;8.63;1.70;;;;;;;13.42;68.32;100690.78;4921236;29;20047;-41
2021/06/17 06:45:48;;;;;;;6.18;1.50;;;;;;;13.51;68.29;100696.13;4923309;29;20127;-40
2021/06/17 06:48:16;;;;;;;5.65;1.80;;;;;;;13.55;68.00;100691.47;4911470;29;20048;-40
2021/06/17 06:50:43;;;;;;;5.63;1.35;;;;;;;13.60;68.11;100684.78;4919650;29;20052;-40
2021/06/17 06:53:11;;;;;;;8.63;1.95;;;;;;;13.73;68.09;100684.25;4910397;29;20135;-42
2021/06/17 06:55:37;;;;;;;6.20;1.90;;;;;;;13.74;68.08;100688.63;4918759;29;20090;-40
2021/06/17 06:58:04;;;;;;;5.38;1.80;;;;;;;13.75;67.86;100695.81;4912984;29;20457;-40
2021/06/17 07:00:32;;;;;;;4.47;1.42;;;;;;;13.75;68.12;100701.38;4913077;29;20068;-40
2021/06/17 07:02:59;;;;;;;5.10;1.90;;;;;;;13.80;67.83;100700.28;4912782;29;20044;-40
2021/06/17 07:05:26;;;;;;;12.55;1.73;;;;;;;13.86;67.79;100707.16;4917466;29;20040;-40
2021/06/17 07:07:53;;;;;;;7.93;2.65;;;;;;;13.98;67.67;100716.16;4912373;29;20138;-40
2021/06/17 07:10:20;;;;;;;12.88;2.47;;;;;;;14.09;67.63;100710.78;4916915;29;20043;-39
2021/06/17 07:12:47;;;;;;;4.53;1.40;;;;;;;14.17;67.64;100711.72;4907355;29;20044;-40
2021/06/17 07:15:14;;;;;;;7.70;1.30;;;;;;;14.41;67.95;100714.97;4912089;29;20526;-40
2021/06/17 07:17:44;;;;;;;6.32;1.90;;;;;;;14.65;67.66;100713.78;4915798;29;20054;-40
2021/06/17 07:20:11;;;;;;;11.10;2.88;;;;;;;14.89;68.11;100707.81;4895095;29;20055;-41
2021/06/17 07:22:38;;;;;;;2.92;1.38;;;;;;;15.10;67.88;100716.47;4911632;29;20116;-41
2021/06/17 07:25:06;;;;;;;9.52;1.67;;;;;;;15.27;68.11;100720.72;4912068;29;20075;-47
2021/06/17 07:27:32;;;;;;;4.30;0.75;;;;;;;15.42;67.29;100716.13;4917841;29;20402;-43
2021/06/17 07:29:59;;;;;;;4.05;0.70;;;;;;;15.76;68.10;100720.56;4909401;29;20059;-45
2021/06/17 07:32:26;;;;;;;4.82;1.30;;;;;;;16.06;67.79;100717.72;4911978;29;20051;-41
2021/06/17 07:34:56;;;;;;;6.40;1.33;;;;;;;16.34;67.67;100724.41;4896290;29;20521;-42
2021/06/17 07:37:23;;;;;;;5.93;1.58;;;;;;;16.50;66.29;100734.50;4917648;29;20041;-42
2021/06/17 07:39:50;;;;;;;11.32;2.88;;;;;;;16.62;65.24;100734.25;4915468;29;20158;-40
2021/06/17 07:42:17;;;;;;;4.45;1.60;;;;;;;16.93;65.38;100739.31;4895319;29;20048;-41
2021/06/17 07:44:44;;;;;;;9.18;1.30;;;;;;;17.13;64.39;100749.03;4910862;29;20048;-41
2021/06/17 07:47:10;;;;;;;10.48;2.40;;;;;;;17.45;63.92;100744.44;4911355;29;20047;-42
2021/06/17 07:49:38;;;;;;;9.00;1.98;;;;;;;17.84;63.38;100743.84;4912990;29;20128;-42
2021/06/17 07:52:05;;;;;;;6.75;1.88;;;;;;;18.23;61.50;100755.97;4895312;29;20052;-41
2021/06/17 07:54:32;;;;;;;5.05;1.20;;;;;;;18.87;59.81;100747.66;4912153;29;20056;-42
2021/06/17 07:57:00;;;;;;;3.75;1.35;;;;;;;19.49;58.25;100764.84;4912661;29;20093;-42
2021/06/17 07:59:27;;;;;;;7.68;1.65;;;;;;;20.00;55.92;100759.44;4899007;29;20144;-40
2021/06/17 08:01:54;;;;;;;5.97;1.88;;;;;;;20.35;55.01;100766.91;4912828;29;20135;-41
2021/06/17 08:04:21;;;;;;;5.60;1.38;;;;;;;20.72;53.24;100766.25;4911843;29;20486;-40
2021/06/17 08:06:50;;;;;;;6.43;1.55;;;;;;;21.31;52.23;100769.78;4915088;29;20587;-40
2021/06/17 08:09:19;;;;;;;5.47;1.67;;;;;;;21.90;50.35;100765.50;4913086;29;20072;-42
2021/06/17 08:11:48;;;;;;;8.10;1.20;;;;;;;22.30;49.08;100772.25;4912504;29;20060;-41
2021/06/17 08:14:23;;;;;;;4.20;2.10;;;;;;;22.54;47.61;100775.91;4907011;29;20068;-41
2021/06/17 08:16:50;;;;;;;6.30;4.07;;;;;;;22.78;46.31;100780.41;4902660;29;20044;-42
2021/06/17 08:19:25;;;;;;;4.43;1.13;;;;;;;23.14;45.69;100778.59;4907427;29;20115;-41
2021/06/17 08:21:51;;;;;;;3.72;0.98;;;;;;;23.29;44.83;100777.13;4908571;29;20055;-41
2021/06/17 08:24:18;;;;;;;4.00;1.00;;;;;;;23.36;44.37;100782.63;4910554;29;20132;-41
2021/06/17 08:26:46;;;;;;;2.22;0.63;;;;;;;23.29;43.84;100785.59;4919332;29;20143;-41
2021/06/17 08:29:13;;;;;;;4.03;0.80;;;;;;;23.54;43.56;100783.13;4905572;29;20100;-41
2021/06/17 08:31:42;;;;;;;7.78;1.20;;;;;;;23.58;43.04;100783.88;4910674;29;20059;-41
2021/06/17 08:34:10;;;;;;;9.82;1.63;;;;;;;23.68;42.72;100784.09;4916452;29;20048;-41
2021/06/17 08:36:37;;;;;;;8.82;2.17;;;;;;;23.75;42.44;100776.25;4922547;29;20115;-45
2021/06/17 08:39:05;;;;;;;4.13;0.98;;;;;;;23.95;41.46;100779.09;4914563;29;20091;-43
2021/06/17 08:41:32;;;;;;;5.03;1.33;;;;;;;24.05;40.96;100778.06;4915407;29;20086;-41
2021/06/17 08:43:59;;;;;;;3.13;1.23;;;;;;;24.19;41.14;100772.97;4900774;29;20094;-41
2021/06/17 08:46:26;;;;;;;3.38;0.88;;;;;;;24.16;39.78;100779.47;4918289;29;20490;-43
2021/06/17 08:48:54;;;;;;;3.63;1.08;;;;;;;24.29;39.44;100779.59;4918525;29;20055;-43
2021/06/17 08:51:21;;;;;;;5.75;1.00;;;;;;;24.42;39.34;100780.53;4908612;29;20079;-41
2021/06/17 08:53:49;;;;;;;7.78;1.33;;;;;;;24.40;39.16;100777.34;4913160;29;20134;-44
2021/06/17 08:56:17;;;;;;;6.78;1.08;;;;;;;24.46;39.22;100783.28;4915238;29;20044;-43
2021/06/17 08:58:45;;;;;;;8.95;1.45;;;;;;;24.64;39.01;100773.13;4916595;29;20394;-47
2021/06/17 09:01:14;;;;;;;3.67;1.10;;;;;;;24.99;38.70;100784.88;4924330;29;20084;-42
2021/06/17 09:03:43;;;;;;;7.63;2.40;;;;;;;25.18;37.20;100779.09;4920915;29;20056;-43
2021/06/17 09:06:11;;;;;;;8.02;1.10;;;;;;;25.16;37.23;100775.09;4917433;29;20126;-42
2021/06/17 09:08:38;;;;;;;4.63;1.02;;;;;;;25.10;36.75;100776.91;4922627;29;20044;-41
2021/06/17 09:11:17;;;;;;;5.18;0.95;;;;;;;25.01;35.71;100776.72;4925920;29;20094;-41
2021/06/17 09:13:45;;;;;;;5.85;1.10;;;;;;;24.95;36.13;100779.28;4913650;29;20052;-43
2021/06/17 09:16:27;;;;;;;3.10;0.98;;;;;;;24.91;35.90;100783.44;4919169;29;20118;-40
2021/06/17 09:18:55;;;;;;;3.15;1.13;;;;;;;25.05;36.22;100783.06;4909669;29;20083;-43
2021/06/17 09:21:22;;;;;;;8.07;0.88;;;;;;;25.18;35.56;100792.44;4909494;29;20134;-41
2021/06/17 09:23:49;;;;;;;3.13;0.90;;;;;;;25.15;35.03;100782.03;4923689;29;20043;-42
2021/06/17 09:26:19;;;;;;;1.90;0.60;;;;;;;25.39;34.98;100780.56;4920660;29;20048;-45
2021/06/17 09:29:07;;;;;;;2.88;0.70;;;;;;;25.59;34.26;100792.59;4919298;29;20110;-47
2021/06/17 09:31:42;;;;;;;7.18;1.30;;;;;;;25.59;33.65;100784.09;4908758;29;20135;-42
2021/06/17 09:34:10;;;;;;;5.28;1.13;;;;;;;25.65;34.44;100779.47;4917042;29;20051;-48
2021/06/17 09:36:39;;;;;;;3.25;1.23;;;;;;;25.82;34.53;100780.22;4918182;29;20048;-44
2021/06/17 09:39:10;;;;;;;5.35;2.03;;;;;;;25.75;34.24;100774.75;4915868;29;20102;-42
2021/06/17 09:41:43;;;;;;;3.92;1.10;;;;;;;25.90;34.07;100776.72;4919942;29;20545;-43
2021/06/17 09:44:36;;;;;;;4.80;1.73;;;;;;;25.84;32.71;100767.16;4912440;29;20048;-44
2021/06/17 09:47:07;;;;;;;;;;;;;;;25.86;33.32;100773.22;4913180;29;20135;-43
2021/06/17 09:49:36;;;;;;;4.20;1.02;;;;;;;26.02;34.53;100784.50;4912934;29;19927;-43
2021/06/17 09:52:04;;;;;;;6.88;1.08;;;;;;;26.15;33.87;100780.91;4916622;29;20096;-42
2021/06/17 09:54:32;;;;;;;5.68;1.00;;;;;;;25.56;33.75;100789.84;4916578;29;20497;-41
2021/06/17 09:57:02;;;;;;;6.38;1.83;;;;;;;24.65;34.81;100794.53;4915967;29;20119;-41
2021/06/17 09:59:46;;;;;;;4.75;1.77;;;;;;;23.79;35.33;100788.31;4908830;29;20047;-40
2021/06/17 10:02:26;;;;;;;5.20;1.15;;;;;;;23.92;35.48;100782.81;4913461;29;20087;-39
2021/06/17 10:05:09;;;;;;;4.93;0.93;;;;;;;24.37;34.75;100789.53;4911651;29;20060;-41
2021/06/17 10:07:38;;;;;;;8.80;1.17;;;;;;;24.42;34.66;100791.84;4915224;29;20036;-40
2021/06/17 10:10:09;;;;;;;5.03;1.00;;;;;;;24.18;34.34;100791.16;4915932;29;20051;-44
2021/06/17 10:12:37;;;;;;;6.43;0.90;;;;;;;24.36;34.81;100785.09;4906389;29;20067;-40
2021/06/17 10:15:06;;;;;;;7.35;1.35;;;;;;;24.72;34.59;100788.72;4907537;29;20516;-41
2021/06/17 10:17:34;;;;;;;3.08;0.65;;;;;;;24.83;34.50;100787.69;4895100;29;20402;-40
2021/06/17 10:20:07;;;;;;;2.58;1.02;;;;;;;24.41;34.26;100800.78;4905609;29;20142;-45
2021/06/17 10:22:37;;;;;;;4.32;0.80;;;;;;;23.68;35.27;100793.38;4914456;29;20055;-40
2021/06/17 10:25:06;;;;;;;4.55;0.95;;;;;;;23.00;36.23;100793.78;4914516;29;20127;-39
2021/06/17 10:27:41;;;;;;;2.97;1.13;;;;;;;22.77;36.74;100788.09;4894525;29;20497;-42
2021/06/17 10:30:10;;;;;;;4.28;1.10;;;;;;;22.40;37.00;100794.66;4910649;29;20054;-39
2021/06/17 10:32:44;;;;;;;5.40;1.60;;;;;;;22.16;37.03;100795.78;4896312;29;20048;-43
2021/06/17 10:35:24;;;;;;;7.78;1.02;;;;;;;22.15;37.30;100801.88;4920200;29;20044;-39
2021/06/17 10:37:52;;;;;;;6.53;1.70;;;;;;;22.29;37.32;100798.88;4902455;29;20114;-41
2021/06/17 10:40:29;;;;;;;6.18;1.85;;;;;;;22.15;37.78;100802.66;4919375;29;20035;-39
2021/06/17 10:42:58;;;;;;;7.65;1.73;;;;;;;22.02;37.76;100798.81;4913672;29;20046;-40
2021/06/17 10:45:40;;;;;;;4.00;1.00;;;;;;;22.14;37.65;100803.06;4895622;29;20060;-39
2021/06/17 10:48:14;;;;;;;4.78;1.20;;;;;;;22.60;37.37;100799.63;4898963;29;20462;-39
2021/06/17 10:50:46;;;;;;;5.85;1.27;;;;;;;22.72;37.10;100799.06;4924020;29;20409;-40
2021/06/17 10:53:24;;;;;;;5.72;1.10;;;;;;;22.36;37.02;100807.22;4912747;29;20131;-40
2021/06/17 10:56:06;;;;;;;4.60;0.80;;;;;;;22.10;37.75;100822.88;4921219;29;20080;-40
2021/06/17 10:58:45;;;;;;;9.68;1.25;;;;;;;21.82;38.13;100820.34;4913108;29;20047;-42
2021/06/17 11:01:31;;;;;;;6.88;1.70;;;;;;;21.56;38.48;100816.22;4921427;29;20079;-39
2021/06/17 11:04:01;;;;;;;7.25;1.30;;;;;;;21.40;38.86;100820.78;4918713;29;20079;-39
2021/06/17 11:06:52;;;;;;;6.28;2.13;;;;;;;21.35;39.26;100821.25;4911836;29;20052;-41
2021/06/17 11:09:34;;;;;;;6.10;1.90;;;;;;;21.16;39.21;100829.06;4913552;29;20078;-39
2021/06/17 11:12:03;;;;;;;8.63;1.50;;;;;;;21.13;39.20;100818.63;4914134;29;20054;-39
2021/06/17 11:14:41;;;;;;;2.45;0.93;;;;;;;21.05;39.38;100817.03;4903126;29;20446;-41
2021/06/17 11:17:26;;;;;;;10.32;1.45;;;;;;;20.73;38.92;100821.34;4920767;29;20151;-39
2021/06/17 11:20:05;;;;;;;11.25;1.58;;;;;;;20.62;38.58;100815.78;4912279;29;20055;-39
2021/06/17 11:22:35;;;;;;;2.55;0.75;;;;;;;20.71;39.24;100813.28;4907983;29;20076;-43
2021/06/17 11:25:17;;;;;;;4.63;1.00;;;;;;;21.09;39.07;100812.22;4912966;29;20585;-39
2021/06/17 11:28:10;;;;;;;5.30;1.00;;;;;;;21.14;38.46;100803.34;4912670;29;20044;-39
2021/06/17 11:30:40;;;;;;;8.93;1.20;;;;;;;20.97;38.29;100821.13;4910649;29;20028;-39
2021/06/17 11:33:14;;;;;;;;;;;;;;;20.74;38.25;100817.28;4913875;29;20048;-39
2021/06/17 11:35:42;;;;;;;3.40;0.50;;;;;;;20.82;38.77;100828.09;4913711;29;19930;-39
2021/06/17 11:38:09;;;;;;;5.97;1.13;;;;;;;20.81;38.71;100834.91;4896865;29;20071;-39
2021/06/17 11:40:37;;;;;;;3.85;1.65;;;;;;;20.66;38.61;100830.59;4913823;29;20044;-39